sensor_id;sensor_type;location;lat;lon;timestamp;pressure;altitude;pressure_sealevel;temperature;humidity
70254;BME280;57649;42.968;1.608;2023-02-15T00:01:18;98225.16;;;2.12;96.97
70254;BME280;57649;42.968;1.608;2023-02-15T00:03:44;98227.53;;;2.02;97.05
70254;BME280;57649;42.968;1.608;2023-02-15T00:06:09;98228.69;;;1.98;97.35
70254;BME280;57649;42.968;1.608;2023-02-15T00:08:34;98221.50;;;2.00;97.07
70254;BME280;57649;42.968;1.608;2023-02-15T00:11:07;98215.34;;;2.14;96.75
70254;BME280;57649;42.968;1.608;2023-02-15T00:13:33;98217.34;;;2.10;98.29
70254;BME280;57649;42.968;1.608;2023-02-15T00:16:09;98215.25;;;2.16;97.02
70254;BME280;57649;42.968;1.608;2023-02-15T00:18:35;98218.00;;;2.14;96.38
70254;BME280;57649;42.968;1.608;2023-02-15T00:21:08;98210.19;;;2.13;97.03
70254;BME280;57649;42.968;1.608;2023-02-15T00:23:35;98206.41;;;2.02;96.56
70254;BME280;57649;42.968;1.608;2023-02-15T00:26:09;98205.25;;;2.06;96.97
70254;BME280;57649;42.968;1.608;2023-02-15T00:28:34;98199.22;;;2.04;96.96
70254;BME280;57649;42.968;1.608;2023-02-15T00:31:08;98199.53;;;2.00;97.98
70254;BME280;57649;42.968;1.608;2023-02-15T00:33:33;98202.28;;;1.98;97.11
70254;BME280;57649;42.968;1.608;2023-02-15T00:35:59;98199.06;;;1.93;97.86
70254;BME280;57649;42.968;1.608;2023-02-15T00:38:27;98201.41;;;1.98;98.58
70254;BME280;57649;42.968;1.608;2023-02-15T00:40:57;98202.44;;;1.95;97.93
70254;BME280;57649;42.968;1.608;2023-02-15T00:43:24;98200.94;;;1.91;98.21
70254;BME280;57649;42.968;1.608;2023-02-15T00:45:50;98198.56;;;1.86;97.69
70254;BME280;57649;42.968;1.608;2023-02-15T00:48:16;98208.56;;;1.96;97.32
70254;BME280;57649;42.968;1.608;2023-02-15T00:50:41;98194.63;;;1.93;97.81
70254;BME280;57649;42.968;1.608;2023-02-15T00:53:08;98196.13;;;1.98;98.29
70254;BME280;57649;42.968;1.608;2023-02-15T00:55:33;98197.25;;;1.93;97.00
70254;BME280;57649;42.968;1.608;2023-02-15T00:57:58;98188.50;;;1.93;96.91
70254;BME280;57649;42.968;1.608;2023-02-15T01:00:24;98184.88;;;1.94;96.59
70254;BME280;57649;42.968;1.608;2023-02-15T01:02:49;98188.97;;;1.85;97.25
70254;BME280;57649;42.968;1.608;2023-02-15T01:05:15;98187.16;;;1.86;96.89
70254;BME280;57649;42.968;1.608;2023-02-15T01:07:40;98192.72;;;1.81;97.77
70254;BME280;57649;42.968;1.608;2023-02-15T01:10:07;98192.44;;;1.71;97.97
70254;BME280;57649;42.968;1.608;2023-02-15T01:12:33;98193.56;;;1.67;98.78
70254;BME280;57649;42.968;1.608;2023-02-15T01:14:58;98196.50;;;1.77;98.21
70254;BME280;57649;42.968;1.608;2023-02-15T01:17:24;98185.75;;;1.80;97.95
70254;BME280;57649;42.968;1.608;2023-02-15T01:19:49;98179.34;;;1.84;96.46
70254;BME280;57649;42.968;1.608;2023-02-15T01:22:16;98189.81;;;1.86;96.36
70254;BME280;57649;42.968;1.608;2023-02-15T01:24:42;98199.72;;;1.82;95.30
70254;BME280;57649;42.968;1.608;2023-02-15T01:27:07;98200.84;;;1.78;95.81
70254;BME280;57649;42.968;1.608;2023-02-15T01:29:33;98209.44;;;1.82;96.43
70254;BME280;57649;42.968;1.608;2023-02-15T01:31:58;98199.97;;;1.78;97.04
70254;BME280;57649;42.968;1.608;2023-02-15T01:34:23;98204.63;;;1.74;97.36
70254;BME280;57649;42.968;1.608;2023-02-15T01:36:49;98205.00;;;1.82;96.93
70254;BME280;57649;42.968;1.608;2023-02-15T01:39:14;98191.50;;;1.72;97.62
70254;BME280;57649;42.968;1.608;2023-02-15T01:41:40;98190.47;;;1.75;97.87
70254;BME280;57649;42.968;1.608;2023-02-15T01:44:47;98198.22;;;1.78;97.88
70254;BME280;57649;42.968;1.608;2023-02-15T01:47:16;98198.84;;;1.67;97.20
70254;BME280;57649;42.968;1.608;2023-02-15T01:49:44;98203.06;;;1.56;97.50
70254;BME280;57649;42.968;1.608;2023-02-15T01:52:14;98202.41;;;1.66;97.30
70254;BME280;57649;42.968;1.608;2023-02-15T01:54:41;98200.28;;;1.73;97.59
70254;BME280;57649;42.968;1.608;2023-02-15T01:57:15;98197.47;;;1.76;97.18
70254;BME280;57649;42.968;1.608;2023-02-15T01:59:45;98195.56;;;1.64;98.25
70254;BME280;57649;42.968;1.608;2023-02-15T02:02:13;98193.97;;;1.61;97.40
70254;BME280;57649;42.968;1.608;2023-02-15T02:04:52;98190.53;;;1.59;97.16
70254;BME280;57649;42.968;1.608;2023-02-15T02:07:25;98193.19;;;1.45;97.83
70254;BME280;57649;42.968;1.608;2023-02-15T02:09:52;98201.19;;;1.43;98.83
70254;BME280;57649;42.968;1.608;2023-02-15T02:12:20;98196.47;;;1.34;99.37
70254;BME280;57649;42.968;1.608;2023-02-15T02:14:48;98187.66;;;1.33;99.42
70254;BME280;57649;42.968;1.608;2023-02-15T02:25:42;98192.81;;;1.51;99.78
70254;BME280;57649;42.968;1.608;2023-02-15T02:36:41;98191.31;;;1.17;99.79
70254;BME280;57649;42.968;1.608;2023-02-15T02:42:12;98194.91;;;1.30;99.44
70254;BME280;57649;42.968;1.608;2023-02-15T02:45:16;98184.28;;;1.31;98.88
70254;BME280;57649;42.968;1.608;2023-02-15T02:47:44;98183.97;;;1.22;99.62
70254;BME280;57649;42.968;1.608;2023-02-15T02:50:18;98185.56;;;1.24;99.30
70254;BME280;57649;42.968;1.608;2023-02-15T02:52:50;98183.53;;;1.29;98.80
70254;BME280;57649;42.968;1.608;2023-02-15T02:57:54;98177.66;;;1.24;98.28
70254;BME280;57649;42.968;1.608;2023-02-15T03:00:23;98186.63;;;1.22;98.85
70254;BME280;57649;42.968;1.608;2023-02-15T03:02:55;98184.34;;;1.15;99.34
70254;BME280;57649;42.968;1.608;2023-02-15T03:05:25;98182.56;;;1.16;98.68
70254;BME280;57649;42.968;1.608;2023-02-15T03:07:53;98180.63;;;1.04;98.88
70254;BME280;57649;42.968;1.608;2023-02-15T03:10:23;98178.41;;;1.12;98.90
70254;BME280;57649;42.968;1.608;2023-02-15T03:12:50;98176.41;;;1.01;99.56
70254;BME280;57649;42.968;1.608;2023-02-15T03:15:23;98173.94;;;0.98;100.00
70254;BME280;57649;42.968;1.608;2023-02-15T03:17:57;98175.13;;;0.92;99.73
70254;BME280;57649;42.968;1.608;2023-02-15T03:20:33;98186.72;;;0.90;99.71
70254;BME280;57649;42.968;1.608;2023-02-15T03:23:05;98178.03;;;0.88;100.00
70254;BME280;57649;42.968;1.608;2023-02-15T03:25:44;98177.69;;;0.94;100.00
70254;BME280;57649;42.968;1.608;2023-02-15T03:28:15;98180.09;;;0.83;100.00
70254;BME280;57649;42.968;1.608;2023-02-15T03:30:45;98171.94;;;0.71;99.53
70254;BME280;57649;42.968;1.608;2023-02-15T03:33:14;98175.69;;;0.67;100.00
70254;BME280;57649;42.968;1.608;2023-02-15T03:35:47;98169.13;;;0.74;99.57
70254;BME280;57649;42.968;1.608;2023-02-15T03:38:18;98185.47;;;0.81;99.70
70254;BME280;57649;42.968;1.608;2023-02-15T03:40:46;98176.25;;;0.88;98.73
70254;BME280;57649;42.968;1.608;2023-02-15T03:48:43;98178.38;;;0.98;97.83
70254;BME280;57649;42.968;1.608;2023-02-15T03:51:16;98177.19;;;0.87;96.81
70254;BME280;57649;42.968;1.608;2023-02-15T03:54:10;98181.47;;;0.74;97.16
70254;BME280;57649;42.968;1.608;2023-02-15T03:56:39;98168.81;;;0.81;96.74
70254;BME280;57649;42.968;1.608;2023-02-15T03:59:05;98170.75;;;0.77;96.72
70254;BME280;57649;42.968;1.608;2023-02-15T04:02:13;98167.53;;;0.72;97.63
70254;BME280;57649;42.968;1.608;2023-02-15T04:04:45;98168.31;;;0.58;98.20
70254;BME280;57649;42.968;1.608;2023-02-15T04:07:11;98171.78;;;0.58;98.22
70254;BME280;57649;42.968;1.608;2023-02-15T04:09:37;98166.34;;;0.62;97.34
70254;BME280;57649;42.968;1.608;2023-02-15T04:12:21;98167.88;;;0.66;96.95
70254;BME280;57649;42.968;1.608;2023-02-15T04:14:47;98173.34;;;0.63;97.42
70254;BME280;57649;42.968;1.608;2023-02-15T04:17:31;98169.59;;;0.67;98.04
70254;BME280;57649;42.968;1.608;2023-02-15T04:19:56;98164.66;;;0.61;97.74
70254;BME280;57649;42.968;1.608;2023-02-15T04:22:40;98166.78;;;0.70;97.39
70254;BME280;57649;42.968;1.608;2023-02-15T04:25:24;98179.97;;;0.70;95.63
70254;BME280;57649;42.968;1.608;2023-02-15T04:27:51;98186.91;;;0.71;95.55
70254;BME280;57649;42.968;1.608;2023-02-15T04:30:20;98180.47;;;0.61;96.13
70254;BME280;57649;42.968;1.608;2023-02-15T04:32:46;98174.69;;;0.70;96.97
70254;BME280;57649;42.968;1.608;2023-02-15T04:35:13;98181.03;;;0.66;97.15
70254;BME280;57649;42.968;1.608;2023-02-15T04:37:40;98180.19;;;0.81;97.14
70254;BME280;57649;42.968;1.608;2023-02-15T04:40:06;98178.84;;;0.74;97.23
70254;BME280;57649;42.968;1.608;2023-02-15T04:42:33;98177.31;;;0.70;97.59
70254;BME280;57649;42.968;1.608;2023-02-15T04:44:58;98191.25;;;0.72;97.45
70254;BME280;57649;42.968;1.608;2023-02-15T04:47:24;98188.63;;;0.72;96.47
70254;BME280;57649;42.968;1.608;2023-02-15T04:49:49;98184.34;;;0.69;96.35
70254;BME280;57649;42.968;1.608;2023-02-15T04:52:15;98178.91;;;0.72;95.92
70254;BME280;57649;42.968;1.608;2023-02-15T04:54:42;98176.72;;;0.65;95.59
70254;BME280;57649;42.968;1.608;2023-02-15T04:57:08;98176.97;;;0.60;94.89
70254;BME280;57649;42.968;1.608;2023-02-15T04:59:34;98185.22;;;0.70;94.81
70254;BME280;57649;42.968;1.608;2023-02-15T05:01:59;98187.94;;;0.68;95.06
70254;BME280;57649;42.968;1.608;2023-02-15T05:04:25;98180.38;;;0.62;94.36
70254;BME280;57649;42.968;1.608;2023-02-15T05:06:50;98182.53;;;0.55;94.33
70254;BME280;57649;42.968;1.608;2023-02-15T05:09:16;98186.59;;;0.45;94.15
70254;BME280;57649;42.968;1.608;2023-02-15T05:11:41;98190.09;;;0.30;95.09
70254;BME280;57649;42.968;1.608;2023-02-15T05:14:07;98179.81;;;0.41;95.11
70254;BME280;57649;42.968;1.608;2023-02-15T05:16:32;98189.81;;;0.50;94.94
70254;BME280;57649;42.968;1.608;2023-02-15T05:18:58;98186.28;;;0.51;94.31
70254;BME280;57649;42.968;1.608;2023-02-15T05:21:24;98191.34;;;0.54;94.78
70254;BME280;57649;42.968;1.608;2023-02-15T05:23:49;98187.94;;;0.52;94.47
70254;BME280;57649;42.968;1.608;2023-02-15T05:26:22;98194.06;;;0.53;94.64
70254;BME280;57649;42.968;1.608;2023-02-15T05:29:07;98186.59;;;0.45;94.23
70254;BME280;57649;42.968;1.608;2023-02-15T05:31:34;98188.97;;;0.50;94.86
70254;BME280;57649;42.968;1.608;2023-02-15T05:34:00;98186.59;;;0.45;95.52
70254;BME280;57649;42.968;1.608;2023-02-15T05:36:25;98190.25;;;0.43;96.21
70254;BME280;57649;42.968;1.608;2023-02-15T05:38:51;98180.22;;;0.49;95.82
70254;BME280;57649;42.968;1.608;2023-02-15T05:41:16;98185.31;;;0.36;94.63
70254;BME280;57649;42.968;1.608;2023-02-15T05:43:42;98194.47;;;0.29;94.18
70254;BME280;57649;42.968;1.608;2023-02-15T05:46:08;98202.06;;;0.19;94.08
70254;BME280;57649;42.968;1.608;2023-02-15T05:48:33;98203.00;;;0.18;94.67
70254;BME280;57649;42.968;1.608;2023-02-15T05:51:12;98196.47;;;0.26;94.61
70254;BME280;57649;42.968;1.608;2023-02-15T05:53:39;98209.28;;;0.32;95.00
70254;BME280;57649;42.968;1.608;2023-02-15T05:56:08;98198.31;;;0.55;93.60
70254;BME280;57649;42.968;1.608;2023-02-15T05:58:36;98201.63;;;0.43;93.86
70254;BME280;57649;42.968;1.608;2023-02-15T06:01:13;98200.03;;;0.41;93.32
70254;BME280;57649;42.968;1.608;2023-02-15T06:03:39;98201.38;;;0.32;94.14
70254;BME280;57649;42.968;1.608;2023-02-15T06:06:05;98203.56;;;0.24;94.36
70254;BME280;57649;42.968;1.608;2023-02-15T06:08:32;98213.25;;;0.23;94.02
70254;BME280;57649;42.968;1.608;2023-02-15T06:10:57;98213.63;;;0.17;94.16
70254;BME280;57649;42.968;1.608;2023-02-15T06:13:23;98220.22;;;0.08;94.36
70254;BME280;57649;42.968;1.608;2023-02-15T06:15:48;98222.69;;;0.11;95.03
70254;BME280;57649;42.968;1.608;2023-02-15T06:18:14;98220.75;;;0.15;95.10
70254;BME280;57649;42.968;1.608;2023-02-15T06:20:39;98221.44;;;0.18;94.50
70254;BME280;57649;42.968;1.608;2023-02-15T06:23:04;98231.78;;;0.22;94.61
70254;BME280;57649;42.968;1.608;2023-02-15T06:25:30;98228.38;;;0.19;94.95
70254;BME280;57649;42.968;1.608;2023-02-15T06:27:55;98224.91;;;0.19;95.73
70254;BME280;57649;42.968;1.608;2023-02-15T06:30:21;98230.94;;;0.21;95.56
70254;BME280;57649;42.968;1.608;2023-02-15T06:32:46;98240.13;;;0.30;95.29
70254;BME280;57649;42.968;1.608;2023-02-15T06:35:12;98242.41;;;0.36;95.47
70254;BME280;57649;42.968;1.608;2023-02-15T06:37:38;98240.13;;;0.30;95.04
70254;BME280;57649;42.968;1.608;2023-02-15T06:40:04;98244.81;;;0.41;95.58
70254;BME280;57649;42.968;1.608;2023-02-15T06:42:29;98252.91;;;0.53;95.06
70254;BME280;57649;42.968;1.608;2023-02-15T06:44:55;98249.97;;;0.42;94.96
70254;BME280;57649;42.968;1.608;2023-02-15T06:47:20;98253.47;;;0.43;95.53
70254;BME280;57649;42.968;1.608;2023-02-15T06:49:46;98254.06;;;0.32;97.03
70254;BME280;57649;42.968;1.608;2023-02-15T06:52:11;98262.66;;;0.35;96.61
70254;BME280;57649;42.968;1.608;2023-02-15T06:54:36;98259.34;;;0.32;96.15
70254;BME280;57649;42.968;1.608;2023-02-15T06:57:02;98266.72;;;0.41;95.14
70254;BME280;57649;42.968;1.608;2023-02-15T06:59:27;98273.25;;;0.34;95.41
70254;BME280;57649;42.968;1.608;2023-02-15T07:01:53;98276.31;;;0.26;95.01
70254;BME280;57649;42.968;1.608;2023-02-15T07:04:18;98266.28;;;0.33;95.22
70254;BME280;57649;42.968;1.608;2023-02-15T07:06:44;98275.66;;;0.38;94.79
70254;BME280;57649;42.968;1.608;2023-02-15T07:09:09;98286.00;;;0.26;95.60
70254;BME280;57649;42.968;1.608;2023-02-15T07:11:34;98287.09;;;0.22;95.85
70254;BME280;57649;42.968;1.608;2023-02-15T07:14:18;98292.47;;;0.36;95.13
70254;BME280;57649;42.968;1.608;2023-02-15T07:16:44;98296.06;;;0.35;95.59
70254;BME280;57649;42.968;1.608;2023-02-15T07:19:09;98287.72;;;0.43;95.03
70254;BME280;57649;42.968;1.608;2023-02-15T07:21:36;98292.47;;;0.36;94.59
70254;BME280;57649;42.968;1.608;2023-02-15T07:24:02;98298.75;;;0.33;93.95
70254;BME280;57649;42.968;1.608;2023-02-15T07:26:28;98299.44;;;0.37;93.29
70254;BME280;57649;42.968;1.608;2023-02-15T07:28:53;98299.09;;;0.43;93.08
70254;BME280;57649;42.968;1.608;2023-02-15T07:31:19;98302.00;;;0.38;93.01
70254;BME280;57649;42.968;1.608;2023-02-15T07:33:44;98305.03;;;0.31;94.07
70254;BME280;57649;42.968;1.608;2023-02-15T07:36:09;98298.06;;;0.30;94.40
70254;BME280;57649;42.968;1.608;2023-02-15T07:38:38;98304.34;;;0.27;94.90
70254;BME280;57649;42.968;1.608;2023-02-15T07:41:14;98299.75;;;0.31;94.93
70254;BME280;57649;42.968;1.608;2023-02-15T07:43:42;98303.94;;;0.35;94.19
70254;BME280;57649;42.968;1.608;2023-02-15T07:46:10;98312.44;;;0.40;93.96
70254;BME280;57649;42.968;1.608;2023-02-15T07:48:37;98308.88;;;0.41;92.86
70254;BME280;57649;42.968;1.608;2023-02-15T07:51:05;98305.72;;;0.34;93.62
70254;BME280;57649;42.968;1.608;2023-02-15T07:53:31;98308.13;;;0.39;93.53
70254;BME280;57649;42.968;1.608;2023-02-15T07:56:05;98320.19;;;0.43;94.34
70254;BME280;57649;42.968;1.608;2023-02-15T07:58:32;98308.03;;;0.41;94.32
70254;BME280;57649;42.968;1.608;2023-02-15T08:01:26;98318.84;;;0.52;94.15
70254;BME280;57649;42.968;1.608;2023-02-15T08:03:53;98323.63;;;0.61;94.13
70254;BME280;57649;42.968;1.608;2023-02-15T08:06:19;98316.88;;;0.71;93.82
70254;BME280;57649;42.968;1.608;2023-02-15T08:08:45;98326.09;;;0.80;93.26
70254;BME280;57649;42.968;1.608;2023-02-15T08:11:19;98319.44;;;0.73;93.50
70254;BME280;57649;42.968;1.608;2023-02-15T08:14:13;98332.13;;;0.82;92.94
70254;BME280;57649;42.968;1.608;2023-02-15T08:19:15;98316.97;;;0.86;91.92
70254;BME280;57649;42.968;1.608;2023-02-15T08:21:44;98308.66;;;0.93;91.73
70254;BME280;57649;42.968;1.608;2023-02-15T08:24:10;98312.06;;;0.95;91.49
70254;BME280;57649;42.968;1.608;2023-02-15T08:26:37;98308.16;;;0.87;91.41
70254;BME280;57649;42.968;1.608;2023-02-15T08:29:04;98318.88;;;1.00;91.81
70254;BME280;57649;42.968;1.608;2023-02-15T08:31:30;98306.25;;;1.21;90.90
70254;BME280;57649;42.968;1.608;2023-02-15T08:33:56;98301.53;;;1.42;89.80
70254;BME280;57649;42.968;1.608;2023-02-15T08:36:28;98300.41;;;1.46;88.15
70254;BME280;57649;42.968;1.608;2023-02-15T08:38:56;98289.22;;;1.57;86.41
70254;BME280;57649;42.968;1.608;2023-02-15T08:41:28;98293.41;;;1.75;85.26
70254;BME280;57649;42.968;1.608;2023-02-15T08:43:56;98296.66;;;1.95;85.65
70254;BME280;57649;42.968;1.608;2023-02-15T08:46:24;98295.56;;;2.13;84.08
70254;BME280;57649;42.968;1.608;2023-02-15T08:48:50;98295.25;;;2.18;83.19
70254;BME280;57649;42.968;1.608;2023-02-15T08:51:21;98298.28;;;2.26;81.28
70254;BME280;57649;42.968;1.608;2023-02-15T08:53:49;98303.00;;;2.35;82.25
70254;BME280;57649;42.968;1.608;2023-02-15T08:56:17;98288.66;;;2.54;81.57
70254;BME280;57649;42.968;1.608;2023-02-15T08:58:42;98296.91;;;2.76;80.96
70254;BME280;57649;42.968;1.608;2023-02-15T09:01:10;98297.75;;;2.91;79.79
70254;BME280;57649;42.968;1.608;2023-02-15T09:03:35;98283.16;;;2.98;77.84
70254;BME280;57649;42.968;1.608;2023-02-15T09:06:01;98287.59;;;3.12;76.96
70254;BME280;57649;42.968;1.608;2023-02-15T09:08:27;98285.22;;;3.35;78.18
70254;BME280;57649;42.968;1.608;2023-02-15T09:10:53;98292.06;;;3.64;77.05
70254;BME280;57649;42.968;1.608;2023-02-15T09:13:20;98292.97;;;3.78;74.78
70254;BME280;57649;42.968;1.608;2023-02-15T09:15:46;98285.97;;;4.02;73.98
70254;BME280;57649;42.968;1.608;2023-02-15T09:18:12;98290.53;;;4.13;72.07
70254;BME280;57649;42.968;1.608;2023-02-15T09:20:43;98283.56;;;4.25;71.51
70254;BME280;57649;42.968;1.608;2023-02-15T09:23:09;98280.97;;;4.49;69.75
70254;BME280;57649;42.968;1.608;2023-02-15T09:25:34;98288.88;;;4.75;68.18
70254;BME280;57649;42.968;1.608;2023-02-15T09:27:59;98283.44;;;4.89;67.81
70254;BME280;57649;42.968;1.608;2023-02-15T09:30:25;98290.84;;;5.21;66.42
70254;BME280;57649;42.968;1.608;2023-02-15T09:32:50;98288.88;;;5.36;65.06
70254;BME280;57649;42.968;1.608;2023-02-15T09:35:16;98291.88;;;5.55;65.17
70254;BME280;57649;42.968;1.608;2023-02-15T09:37:41;98284.19;;;5.75;64.49
70254;BME280;57649;42.968;1.608;2023-02-15T09:40:07;98281.63;;;5.97;63.17
70254;BME280;57649;42.968;1.608;2023-02-15T09:45:52;98286.03;;;6.55;61.07
70254;BME280;57649;42.968;1.608;2023-02-15T09:48:54;98291.59;;;6.86;59.39
70254;BME280;57649;42.968;1.608;2023-02-15T09:51:28;98285.47;;;7.18;57.17
70254;BME280;57649;42.968;1.608;2023-02-15T09:54:32;98282.09;;;7.80;56.21
70254;BME280;57649;42.968;1.608;2023-02-15T09:59:58;98280.69;;;8.49;53.80
70254;BME280;57649;42.968;1.608;2023-02-15T10:10:57;98266.31;;;8.71;52.58
70254;BME280;57649;42.968;1.608;2023-02-15T10:14:20;98269.13;;;8.70;50.85
70254;BME280;57649;42.968;1.608;2023-02-15T10:25:04;98270.81;;;8.71;52.10
70254;BME280;57649;42.968;1.608;2023-02-15T10:27:43;98277.09;;;8.60;52.52
70254;BME280;57649;42.968;1.608;2023-02-15T10:30:11;98289.03;;;8.56;52.65
70254;BME280;57649;42.968;1.608;2023-02-15T10:32:43;98283.72;;;8.65;52.21
70254;BME280;57649;42.968;1.608;2023-02-15T10:38:23;98278.50;;;9.04;50.61
70254;BME280;57649;42.968;1.608;2023-02-15T10:43:39;98285.06;;;9.51;50.63
70254;BME280;57649;42.968;1.608;2023-02-15T11:03:45;98273.88;;;10.98;47.46
70254;BME280;57649;42.968;1.608;2023-02-15T11:06:18;98263.41;;;11.05;49.36
70254;BME280;57649;42.968;1.608;2023-02-15T11:08:54;98276.72;;;11.25;51.66
70254;BME280;57649;42.968;1.608;2023-02-15T11:11:27;98263.38;;;11.51;51.91
70254;BME280;57649;42.968;1.608;2023-02-15T11:13:58;98258.41;;;11.92;51.38
70254;BME280;57649;42.968;1.608;2023-02-15T11:16:32;98256.25;;;11.78;52.25
70254;BME280;57649;42.968;1.608;2023-02-15T11:19:13;98260.25;;;11.91;51.84
70254;BME280;57649;42.968;1.608;2023-02-15T11:21:45;98255.06;;;12.16;51.95
70254;BME280;57649;42.968;1.608;2023-02-15T11:24:14;98255.00;;;12.34;52.24
70254;BME280;57649;42.968;1.608;2023-02-15T11:26:51;98251.19;;;12.37;52.11
70254;BME280;57649;42.968;1.608;2023-02-15T11:32:26;98237.19;;;12.59;52.28
70254;BME280;57649;42.968;1.608;2023-02-15T11:37:47;98235.91;;;12.37;52.39
70254;BME280;57649;42.968;1.608;2023-02-15T11:40:27;98231.31;;;12.56;51.47
70254;BME280;57649;42.968;1.608;2023-02-15T11:42:56;98232.22;;;12.38;52.27
70254;BME280;57649;42.968;1.608;2023-02-15T11:47:52;98225.38;;;12.44;52.72
70254;BME280;57649;42.968;1.608;2023-02-15T11:50:23;98225.47;;;12.60;52.89
70254;BME280;57649;42.968;1.608;2023-02-15T11:52:51;98228.25;;;12.50;53.50
70254;BME280;57649;42.968;1.608;2023-02-15T11:55:22;98220.13;;;12.68;52.62
70254;BME280;57649;42.968;1.608;2023-02-15T11:57:57;98214.44;;;12.80;51.86
70254;BME280;57649;42.968;1.608;2023-02-15T12:00:46;98214.34;;;12.98;51.79
70254;BME280;57649;42.968;1.608;2023-02-15T12:03:19;98216.31;;;12.87;52.29
70254;BME280;57649;42.968;1.608;2023-02-15T12:05:50;98219.00;;;12.87;51.37
70254;BME280;57649;42.968;1.608;2023-02-15T12:08:20;98210.94;;;12.87;51.57
70254;BME280;57649;42.968;1.608;2023-02-15T12:10:58;98206.06;;;12.83;51.30
70254;BME280;57649;42.968;1.608;2023-02-15T12:13:25;98210.47;;;13.00;50.92
70254;BME280;57649;42.968;1.608;2023-02-15T12:15:53;98202.53;;;12.82;51.28
70254;BME280;57649;42.968;1.608;2023-02-15T12:18:42;98197.53;;;13.04;51.44
70254;BME280;57649;42.968;1.608;2023-02-15T12:21:23;98203.97;;;13.19;50.98
70254;BME280;57649;42.968;1.608;2023-02-15T12:23:55;98196.13;;;13.34;50.33
70254;BME280;57649;42.968;1.608;2023-02-15T12:26:35;98202.31;;;13.26;49.78
70254;BME280;57649;42.968;1.608;2023-02-15T12:29:09;98201.19;;;13.37;50.31
70254;BME280;57649;42.968;1.608;2023-02-15T12:31:40;98192.03;;;13.22;50.51
70254;BME280;57649;42.968;1.608;2023-02-15T12:34:21;98196.56;;;13.13;50.40
70254;BME280;57649;42.968;1.608;2023-02-15T12:36:53;98199.19;;;12.97;50.71
70254;BME280;57649;42.968;1.608;2023-02-15T12:39:26;98200.31;;;12.69;51.53
70254;BME280;57649;42.968;1.608;2023-02-15T12:44:26;98193.38;;;12.59;51.14
70254;BME280;57649;42.968;1.608;2023-02-15T12:47:19;98193.00;;;12.96;49.58
70254;BME280;57649;42.968;1.608;2023-02-15T12:50:07;98189.16;;;13.07;49.58
70254;BME280;57649;42.968;1.608;2023-02-15T12:52:36;98188.84;;;13.10;49.66
70254;BME280;57649;42.968;1.608;2023-02-15T12:55:20;98183.69;;;13.33;48.18
70254;BME280;57649;42.968;1.608;2023-02-15T12:57:46;98180.69;;;13.53;48.28
70254;BME280;57649;42.968;1.608;2023-02-15T13:00:40;98184.72;;;13.57;47.99
70254;BME280;57649;42.968;1.608;2023-02-15T13:03:21;98179.47;;;13.96;48.32
70254;BME280;57649;42.968;1.608;2023-02-15T13:05:53;98178.63;;;14.04;46.99
70254;BME280;57649;42.968;1.608;2023-02-15T13:08:45;98180.50;;;13.87;45.78
70254;BME280;57649;42.968;1.608;2023-02-15T13:11:11;98174.59;;;14.00;47.41
70254;BME280;57649;42.968;1.608;2023-02-15T13:16:28;98167.69;;;13.97;46.89
70254;BME280;57649;42.968;1.608;2023-02-15T13:18:56;98158.97;;;13.87;47.03
70254;BME280;57649;42.968;1.608;2023-02-15T13:21:26;98181.50;;;13.94;47.37
70254;BME280;57649;42.968;1.608;2023-02-15T13:23:57;98175.44;;;13.92;44.51
70254;BME280;57649;42.968;1.608;2023-02-15T13:26:27;98163.00;;;13.91;45.01
70254;BME280;57649;42.968;1.608;2023-02-15T13:29:17;98163.97;;;14.15;45.00
70254;BME280;57649;42.968;1.608;2023-02-15T13:31:44;98169.72;;;14.03;44.31
70254;BME280;57649;42.968;1.608;2023-02-15T13:34:16;98164.25;;;14.28;44.96
70254;BME280;57649;42.968;1.608;2023-02-15T13:37:12;98162.03;;;14.40;44.05
70254;BME280;57649;42.968;1.608;2023-02-15T13:39:48;98158.31;;;14.49;42.33
70254;BME280;57649;42.968;1.608;2023-02-15T13:45:47;98160.94;;;14.18;42.10
70254;BME280;57649;42.968;1.608;2023-02-15T13:57:14;98151.50;;;14.22;41.99
70254;BME280;57649;42.968;1.608;2023-02-15T14:08:01;98146.81;;;14.08;42.10
70254;BME280;57649;42.968;1.608;2023-02-15T14:21:00;98145.72;;;14.33;45.51
70254;BME280;57649;42.968;1.608;2023-02-15T14:26:14;98135.59;;;14.35;44.90
70254;BME280;57649;42.968;1.608;2023-02-15T14:29:06;98143.38;;;14.30;45.48
70254;BME280;57649;42.968;1.608;2023-02-15T14:31:41;98158.03;;;14.19;48.52
70254;BME280;57649;42.968;1.608;2023-02-15T14:34:19;98153.69;;;14.10;50.33
70254;BME280;57649;42.968;1.608;2023-02-15T14:36:46;98159.97;;;13.94;50.90
70254;BME280;57649;42.968;1.608;2023-02-15T14:39:47;98165.19;;;13.88;51.76
70254;BME280;57649;42.968;1.608;2023-02-15T14:42:58;98163.84;;;13.83;54.08
70254;BME280;57649;42.968;1.608;2023-02-15T14:45:35;98163.03;;;13.83;54.43
70254;BME280;57649;42.968;1.608;2023-02-15T14:48:14;98171.25;;;13.81;54.77
70254;BME280;57649;42.968;1.608;2023-02-15T14:50:43;98169.56;;;13.89;55.60
70254;BME280;57649;42.968;1.608;2023-02-15T14:58:54;98167.38;;;13.84;55.96
70254;BME280;57649;42.968;1.608;2023-02-15T15:01:33;98175.78;;;13.81;56.60
70254;BME280;57649;42.968;1.608;2023-02-15T15:04:03;98182.00;;;13.98;56.08
70254;BME280;57649;42.968;1.608;2023-02-15T15:06:30;98175.25;;;14.02;55.30
70254;BME280;57649;42.968;1.608;2023-02-15T15:11:43;98179.16;;;13.99;55.89
70254;BME280;57649;42.968;1.608;2023-02-15T15:14:10;98185.38;;;14.00;56.38
70254;BME280;57649;42.968;1.608;2023-02-15T15:19:09;98181.16;;;13.97;56.38
70254;BME280;57649;42.968;1.608;2023-02-15T15:46:59;98189.25;;;13.56;59.27
70254;BME280;57649;42.968;1.608;2023-02-15T15:49:31;98196.31;;;13.65;59.43
70254;BME280;57649;42.968;1.608;2023-02-15T15:52:18;98195.97;;;13.36;60.11
70254;BME280;57649;42.968;1.608;2023-02-15T15:54:48;98199.16;;;13.39;60.06
70254;BME280;57649;42.968;1.608;2023-02-15T15:57:30;98194.75;;;13.30;60.48
70254;BME280;57649;42.968;1.608;2023-02-15T15:59:57;98191.88;;;13.23;61.39
70254;BME280;57649;42.968;1.608;2023-02-15T16:02:26;98198.59;;;13.19;61.58
70254;BME280;57649;42.968;1.608;2023-02-15T16:04:52;98199.91;;;13.07;62.00
70254;BME280;57649;42.968;1.608;2023-02-15T16:12:25;98196.97;;;12.76;62.89